sensor_id;sensor_type;location;lat;lon;timestamp;P1;durP1;ratioP1;P2;durP2;ratioP2
10056;SDS011;5068;51.286;7.518;2023-03-11T00:00:03;2.08;;;0.80;;
10056;SDS011;5068;51.286;7.518;2023-03-11T00:01:39;1.40;;;0.90;;
10056;SDS011;5068;51.286;7.518;2023-03-11T00:03:13;1.52;;;0.77;;
10056;SDS011;5068;51.286;7.518;2023-03-11T00:04:49;1.17;;;0.98;;
10056;SDS011;5068;51.286;7.518;2023-03-11T00:06:23;3.38;;;2.90;;
10056;SDS011;5068;51.286;7.518;2023-03-11T00:07:56;4.50;;;3.78;;
10056;SDS011;5068;51.286;7.518;2023-03-11T00:09:29;1.77;;;1.27;;
10056;SDS011;5068;51.286;7.518;2023-03-11T00:11:04;1.65;;;1.20;;
10056;SDS011;5068;51.286;7.518;2023-03-11T00:12:37;2.60;;;1.42;;
10056;SDS011;5068;51.286;7.518;2023-03-11T00:14:10;2.17;;;1.30;;
10056;SDS011;5068;51.286;7.518;2023-03-11T00:15:45;1.38;;;1.00;;
10056;SDS011;5068;51.286;7.518;2023-03-11T00:17:21;1.83;;;1.30;;
10056;SDS011;5068;51.286;7.518;2023-03-11T00:18:54;2.53;;;1.60;;
10056;SDS011;5068;51.286;7.518;2023-03-11T00:20:30;2.92;;;2.22;;
10056;SDS011;5068;51.286;7.518;2023-03-11T00:22:05;1.95;;;1.30;;
10056;SDS011;5068;51.286;7.518;2023-03-11T00:23:39;1.70;;;1.08;;
10056;SDS011;5068;51.286;7.518;2023-03-11T00:25:13;2.15;;;1.20;;
10056;SDS011;5068;51.286;7.518;2023-03-11T00:26:47;1.92;;;1.40;;
10056;SDS011;5068;51.286;7.518;2023-03-11T00:28:21;1.10;;;0.88;;
10056;SDS011;5068;51.286;7.518;2023-03-11T00:29:56;1.88;;;0.88;;
10056;SDS011;5068;51.286;7.518;2023-03-11T00:31:28;1.50;;;1.00;;
10056;SDS011;5068;51.286;7.518;2023-03-11T00:33:03;1.10;;;0.73;;
10056;SDS011;5068;51.286;7.518;2023-03-11T00:34:36;1.60;;;1.08;;
10056;SDS011;5068;51.286;7.518;2023-03-11T00:36:12;1.70;;;1.40;;
10056;SDS011;5068;51.286;7.518;2023-03-11T00:37:55;1.00;;;0.90;;
10056;SDS011;5068;51.286;7.518;2023-03-11T00:39:30;1.30;;;0.80;;
10056;SDS011;5068;51.286;7.518;2023-03-11T00:41:03;1.30;;;0.90;;
10056;SDS011;5068;51.286;7.518;2023-03-11T00:42:38;2.70;;;1.70;;
10056;SDS011;5068;51.286;7.518;2023-03-11T00:44:14;2.08;;;1.58;;
10056;SDS011;5068;51.286;7.518;2023-03-11T00:45:47;1.60;;;0.90;;
10056;SDS011;5068;51.286;7.518;2023-03-11T00:47:19;3.50;;;1.77;;
10056;SDS011;5068;51.286;7.518;2023-03-11T00:48:52;2.03;;;1.70;;
10056;SDS011;5068;51.286;7.518;2023-03-11T00:50:27;1.17;;;0.88;;
10056;SDS011;5068;51.286;7.518;2023-03-11T00:52:03;1.85;;;1.27;;
10056;SDS011;5068;51.286;7.518;2023-03-11T00:53:37;1.65;;;1.10;;
10056;SDS011;5068;51.286;7.518;2023-03-11T00:55:11;1.27;;;0.77;;
10056;SDS011;5068;51.286;7.518;2023-03-11T00:56:47;2.08;;;1.65;;
10056;SDS011;5068;51.286;7.518;2023-03-11T00:58:22;1.98;;;1.40;;
10056;SDS011;5068;51.286;7.518;2023-03-11T01:00:00;1.30;;;0.95;;
10056;SDS011;5068;51.286;7.518;2023-03-11T01:01:34;2.38;;;1.30;;
10056;SDS011;5068;51.286;7.518;2023-03-11T01:03:08;1.60;;;1.05;;
10056;SDS011;5068;51.286;7.518;2023-03-11T01:04:43;4.45;;;2.42;;
10056;SDS011;5068;51.286;7.518;2023-03-11T01:06:15;2.45;;;1.50;;
10056;SDS011;5068;51.286;7.518;2023-03-11T01:07:49;1.70;;;1.20;;
10056;SDS011;5068;51.286;7.518;2023-03-11T01:09:23;3.08;;;1.17;;
10056;SDS011;5068;51.286;7.518;2023-03-11T01:10:56;2.10;;;1.80;;
10056;SDS011;5068;51.286;7.518;2023-03-11T01:12:31;1.95;;;1.30;;
10056;SDS011;5068;51.286;7.518;2023-03-11T01:14:06;2.00;;;1.45;;
10056;SDS011;5068;51.286;7.518;2023-03-11T01:15:41;1.90;;;1.10;;
10056;SDS011;5068;51.286;7.518;2023-03-11T01:17:14;1.50;;;1.13;;
10056;SDS011;5068;51.286;7.518;2023-03-11T01:18:47;2.45;;;1.10;;
10056;SDS011;5068;51.286;7.518;2023-03-11T01:20:21;2.17;;;1.30;;
10056;SDS011;5068;51.286;7.518;2023-03-11T01:21:54;2.35;;;1.08;;
10056;SDS011;5068;51.286;7.518;2023-03-11T01:23:27;4.30;;;1.40;;
10056;SDS011;5068;51.286;7.518;2023-03-11T01:25:04;1.52;;;1.30;;
10056;SDS011;5068;51.286;7.518;2023-03-11T01:28:13;1.90;;;1.17;;
10056;SDS011;5068;51.286;7.518;2023-03-11T01:29:48;2.63;;;1.20;;
10056;SDS011;5068;51.286;7.518;2023-03-11T01:31:23;2.17;;;1.38;;
10056;SDS011;5068;51.286;7.518;2023-03-11T01:32:56;4.80;;;1.10;;
10056;SDS011;5068;51.286;7.518;2023-03-11T01:34:30;1.83;;;1.20;;
10056;SDS011;5068;51.286;7.518;2023-03-11T01:36:06;2.75;;;1.30;;
10056;SDS011;5068;51.286;7.518;2023-03-11T01:37:40;2.22;;;1.38;;
10056;SDS011;5068;51.286;7.518;2023-03-11T01:39:12;2.22;;;1.10;;
10056;SDS011;5068;51.286;7.518;2023-03-11T01:40:46;1.88;;;1.30;;
10056;SDS011;5068;51.286;7.518;2023-03-11T01:42:22;1.92;;;1.17;;
10056;SDS011;5068;51.286;7.518;2023-03-11T01:43:56;2.60;;;1.30;;
10056;SDS011;5068;51.286;7.518;2023-03-11T01:45:39;1.63;;;0.85;;
10056;SDS011;5068;51.286;7.518;2023-03-11T01:47:37;2.67;;;1.27;;
10056;SDS011;5068;51.286;7.518;2023-03-11T01:49:13;2.45;;;1.30;;
10056;SDS011;5068;51.286;7.518;2023-03-11T01:50:47;2.92;;;1.10;;
10056;SDS011;5068;51.286;7.518;2023-03-11T01:52:22;2.60;;;1.05;;
10056;SDS011;5068;51.286;7.518;2023-03-11T01:53:56;2.58;;;1.38;;
10056;SDS011;5068;51.286;7.518;2023-03-11T01:55:35;1.90;;;1.20;;
10056;SDS011;5068;51.286;7.518;2023-03-11T01:57:11;2.15;;;1.25;;
10056;SDS011;5068;51.286;7.518;2023-03-11T01:58:46;3.55;;;1.17;;
10056;SDS011;5068;51.286;7.518;2023-03-11T02:00:23;1.70;;;1.10;;
10056;SDS011;5068;51.286;7.518;2023-03-11T02:02:00;1.98;;;1.20;;
10056;SDS011;5068;51.286;7.518;2023-03-11T02:03:42;2.20;;;1.20;;
10056;SDS011;5068;51.286;7.518;2023-03-11T02:05:15;3.35;;;1.10;;
10056;SDS011;5068;51.286;7.518;2023-03-11T02:06:51;2.85;;;1.25;;
10056;SDS011;5068;51.286;7.518;2023-03-11T02:08:25;2.15;;;1.02;;
10056;SDS011;5068;51.286;7.518;2023-03-11T02:10:01;1.85;;;1.10;;
10056;SDS011;5068;51.286;7.518;2023-03-11T02:11:35;2.28;;;1.10;;
10056;SDS011;5068;51.286;7.518;2023-03-11T02:13:09;1.70;;;0.95;;
10056;SDS011;5068;51.286;7.518;2023-03-11T02:14:45;1.75;;;1.08;;
10056;SDS011;5068;51.286;7.518;2023-03-11T02:16:22;1.20;;;0.80;;
10056;SDS011;5068;51.286;7.518;2023-03-11T02:17:57;1.40;;;0.88;;
10056;SDS011;5068;51.286;7.518;2023-03-11T02:19:35;2.75;;;1.20;;
10056;SDS011;5068;51.286;7.518;2023-03-11T02:21:28;1.58;;;1.00;;
10056;SDS011;5068;51.286;7.518;2023-03-11T02:23:06;1.63;;;1.05;;
10056;SDS011;5068;51.286;7.518;2023-03-11T02:24:42;2.20;;;1.13;;
10056;SDS011;5068;51.286;7.518;2023-03-11T02:26:22;3.13;;;1.05;;
10056;SDS011;5068;51.286;7.518;2023-03-11T02:28:06;2.40;;;1.10;;
10056;SDS011;5068;51.286;7.518;2023-03-11T02:29:43;2.38;;;0.80;;
10056;SDS011;5068;51.286;7.518;2023-03-11T02:31:20;1.27;;;0.82;;
10056;SDS011;5068;51.286;7.518;2023-03-11T02:32:55;2.20;;;1.00;;
10056;SDS011;5068;51.286;7.518;2023-03-11T02:34:29;1.80;;;1.05;;
10056;SDS011;5068;51.286;7.518;2023-03-11T02:36:05;1.83;;;0.93;;
10056;SDS011;5068;51.286;7.518;2023-03-11T02:38:00;1.70;;;0.88;;
10056;SDS011;5068;51.286;7.518;2023-03-11T02:39:36;1.70;;;1.00;;
10056;SDS011;5068;51.286;7.518;2023-03-11T02:41:14;2.05;;;0.90;;
10056;SDS011;5068;51.286;7.518;2023-03-11T02:42:47;2.58;;;1.55;;
10056;SDS011;5068;51.286;7.518;2023-03-11T02:44:23;2.35;;;0.90;;
10056;SDS011;5068;51.286;7.518;2023-03-11T02:45:57;1.70;;;0.77;;
10056;SDS011;5068;51.286;7.518;2023-03-11T02:47:30;1.98;;;0.68;;
10056;SDS011;5068;51.286;7.518;2023-03-11T02:49:05;1.75;;;0.80;;
10056;SDS011;5068;51.286;7.518;2023-03-11T02:50:39;1.60;;;0.70;;
10056;SDS011;5068;51.286;7.518;2023-03-11T02:52:13;1.08;;;0.77;;
10056;SDS011;5068;51.286;7.518;2023-03-11T02:53:46;2.38;;;0.70;;
10056;SDS011;5068;51.286;7.518;2023-03-11T02:55:23;1.20;;;0.55;;
10056;SDS011;5068;51.286;7.518;2023-03-11T02:56:55;1.40;;;0.57;;
10056;SDS011;5068;51.286;7.518;2023-03-11T02:58:30;2.95;;;0.50;;
10056;SDS011;5068;51.286;7.518;2023-03-11T03:00:05;0.70;;;0.45;;
10056;SDS011;5068;51.286;7.518;2023-03-11T03:01:46;2.05;;;0.68;;
10056;SDS011;5068;51.286;7.518;2023-03-11T03:03:19;1.83;;;0.60;;
10056;SDS011;5068;51.286;7.518;2023-03-11T03:04:53;2.08;;;0.52;;
10056;SDS011;5068;51.286;7.518;2023-03-11T03:06:26;2.67;;;0.70;;
10056;SDS011;5068;51.286;7.518;2023-03-11T03:08:00;1.23;;;0.60;;
10056;SDS011;5068;51.286;7.518;2023-03-11T03:09:34;1.50;;;0.47;;
10056;SDS011;5068;51.286;7.518;2023-03-11T03:11:08;1.50;;;0.50;;
10056;SDS011;5068;51.286;7.518;2023-03-11T03:12:41;2.42;;;0.60;;
10056;SDS011;5068;51.286;7.518;2023-03-11T03:14:13;2.40;;;0.60;;
10056;SDS011;5068;51.286;7.518;2023-03-11T03:15:48;2.58;;;0.52;;
10056;SDS011;5068;51.286;7.518;2023-03-11T03:17:21;1.13;;;0.47;;
10056;SDS011;5068;51.286;7.518;2023-03-11T03:18:54;1.00;;;0.70;;
10056;SDS011;5068;51.286;7.518;2023-03-11T03:20:28;2.33;;;0.70;;
10056;SDS011;5068;51.286;7.518;2023-03-11T03:22:04;1.50;;;0.50;;
10056;SDS011;5068;51.286;7.518;2023-03-11T03:23:38;1.83;;;0.70;;
10056;SDS011;5068;51.286;7.518;2023-03-11T03:25:11;2.83;;;0.65;;
10056;SDS011;5068;51.286;7.518;2023-03-11T03:26:44;3.55;;;0.70;;
10056;SDS011;5068;51.286;7.518;2023-03-11T03:28:17;2.30;;;1.00;;
10056;SDS011;5068;51.286;7.518;2023-03-11T03:29:50;2.03;;;0.90;;
10056;SDS011;5068;51.286;7.518;2023-03-11T03:31:28;2.28;;;0.65;;
10056;SDS011;5068;51.286;7.518;2023-03-11T03:33:05;3.50;;;1.10;;
10056;SDS011;5068;51.286;7.518;2023-03-11T03:34:39;3.47;;;1.20;;
10056;SDS011;5068;51.286;7.518;2023-03-11T03:36:13;2.75;;;1.30;;
10056;SDS011;5068;51.286;7.518;2023-03-11T03:37:52;3.58;;;1.20;;
10056;SDS011;5068;51.286;7.518;2023-03-11T03:39:25;1.65;;;1.15;;
10056;SDS011;5068;51.286;7.518;2023-03-11T03:41:01;3.22;;;1.40;;
10056;SDS011;5068;51.286;7.518;2023-03-11T03:42:37;3.30;;;1.70;;
10056;SDS011;5068;51.286;7.518;2023-03-11T03:44:09;3.00;;;1.63;;
10056;SDS011;5068;51.286;7.518;2023-03-11T03:45:43;4.68;;;1.63;;
10056;SDS011;5068;51.286;7.518;2023-03-11T03:47:17;2.83;;;1.58;;
10056;SDS011;5068;51.286;7.518;2023-03-11T03:48:51;4.40;;;1.63;;
10056;SDS011;5068;51.286;7.518;2023-03-11T03:50:24;3.22;;;1.88;;
10056;SDS011;5068;51.286;7.518;2023-03-11T03:53:35;2.95;;;1.50;;
10056;SDS011;5068;51.286;7.518;2023-03-11T03:55:09;4.13;;;1.67;;
10056;SDS011;5068;51.286;7.518;2023-03-11T03:56:43;3.65;;;1.80;;
10056;SDS011;5068;51.286;7.518;2023-03-11T03:58:16;3.90;;;1.60;;
10056;SDS011;5068;51.286;7.518;2023-03-11T03:59:49;6.78;;;1.75;;
10056;SDS011;5068;51.286;7.518;2023-03-11T04:01:22;5.00;;;2.00;;
10056;SDS011;5068;51.286;7.518;2023-03-11T04:02:56;2.78;;;1.80;;
10056;SDS011;5068;51.286;7.518;2023-03-11T04:04:38;3.60;;;1.63;;
10056;SDS011;5068;51.286;7.518;2023-03-11T04:06:14;4.55;;;1.70;;
10056;SDS011;5068;51.286;7.518;2023-03-11T04:07:54;4.13;;;1.60;;
10056;SDS011;5068;51.286;7.518;2023-03-11T04:09:27;3.13;;;1.95;;
10056;SDS011;5068;51.286;7.518;2023-03-11T04:11:01;4.63;;;1.90;;
10056;SDS011;5068;51.286;7.518;2023-03-11T04:12:37;3.10;;;1.70;;
10056;SDS011;5068;51.286;7.518;2023-03-11T04:14:12;6.20;;;1.73;;
10056;SDS011;5068;51.286;7.518;2023-03-11T04:15:53;4.00;;;2.15;;
10056;SDS011;5068;51.286;7.518;2023-03-11T04:17:26;3.10;;;1.85;;
10056;SDS011;5068;51.286;7.518;2023-03-11T04:19:01;4.95;;;2.00;;
10056;SDS011;5068;51.286;7.518;2023-03-11T04:20:37;3.92;;;2.03;;
10056;SDS011;5068;51.286;7.518;2023-03-11T04:22:10;3.25;;;2.00;;
10056;SDS011;5068;51.286;7.518;2023-03-11T04:23:43;4.55;;;1.90;;
10056;SDS011;5068;51.286;7.518;2023-03-11T04:25:19;3.05;;;2.03;;
10056;SDS011;5068;51.286;7.518;2023-03-11T04:26:52;3.70;;;1.88;;
10056;SDS011;5068;51.286;7.518;2023-03-11T04:28:25;2.47;;;1.52;;
10056;SDS011;5068;51.286;7.518;2023-03-11T04:29:58;2.78;;;1.58;;
10056;SDS011;5068;51.286;7.518;2023-03-11T04:31:33;5.45;;;1.98;;
10056;SDS011;5068;51.286;7.518;2023-03-11T04:33:09;2.75;;;1.45;;
10056;SDS011;5068;51.286;7.518;2023-03-11T04:34:44;5.75;;;1.90;;
10056;SDS011;5068;51.286;7.518;2023-03-11T04:36:18;3.95;;;1.50;;
10056;SDS011;5068;51.286;7.518;2023-03-11T04:37:52;3.85;;;1.77;;
10056;SDS011;5068;51.286;7.518;2023-03-11T04:39:26;3.45;;;1.40;;
10056;SDS011;5068;51.286;7.518;2023-03-11T04:40:59;3.53;;;1.60;;
10056;SDS011;5068;51.286;7.518;2023-03-11T04:42:32;4.65;;;1.77;;
10056;SDS011;5068;51.286;7.518;2023-03-11T04:44:05;3.50;;;1.45;;
10056;SDS011;5068;51.286;7.518;2023-03-11T04:45:39;4.53;;;1.85;;
10056;SDS011;5068;51.286;7.518;2023-03-11T04:47:14;5.05;;;1.75;;
10056;SDS011;5068;51.286;7.518;2023-03-11T04:48:47;2.85;;;1.55;;
10056;SDS011;5068;51.286;7.518;2023-03-11T04:50:21;2.97;;;1.65;;
10056;SDS011;5068;51.286;7.518;2023-03-11T04:51:55;3.55;;;1.50;;
10056;SDS011;5068;51.286;7.518;2023-03-11T04:53:29;5.43;;;1.83;;
10056;SDS011;5068;51.286;7.518;2023-03-11T04:55:02;2.85;;;1.33;;
10056;SDS011;5068;51.286;7.518;2023-03-11T04:56:36;2.20;;;1.30;;
10056;SDS011;5068;51.286;7.518;2023-03-11T04:58:10;2.85;;;1.42;;
10056;SDS011;5068;51.286;7.518;2023-03-11T04:59:43;2.88;;;1.58;;
10056;SDS011;5068;51.286;7.518;2023-03-11T05:01:18;3.53;;;1.50;;
10056;SDS011;5068;51.286;7.518;2023-03-11T05:02:50;4.07;;;1.27;;
10056;SDS011;5068;51.286;7.518;2023-03-11T05:04:25;3.55;;;1.70;;
10056;SDS011;5068;51.286;7.518;2023-03-11T05:05:59;4.38;;;1.50;;
10056;SDS011;5068;51.286;7.518;2023-03-11T05:07:31;2.80;;;1.73;;
10056;SDS011;5068;51.286;7.518;2023-03-11T05:09:04;3.65;;;1.42;;
10056;SDS011;5068;51.286;7.518;2023-03-11T05:10:40;2.85;;;1.40;;
10056;SDS011;5068;51.286;7.518;2023-03-11T05:12:14;5.00;;;1.50;;
10056;SDS011;5068;51.286;7.518;2023-03-11T05:13:52;5.43;;;1.80;;
10056;SDS011;5068;51.286;7.518;2023-03-11T05:15:25;4.65;;;1.40;;
10056;SDS011;5068;51.286;7.518;2023-03-11T05:16:59;3.13;;;1.40;;
10056;SDS011;5068;51.286;7.518;2023-03-11T05:18:33;3.33;;;1.50;;
10056;SDS011;5068;51.286;7.518;2023-03-11T05:20:07;4.35;;;1.67;;
10056;SDS011;5068;51.286;7.518;2023-03-11T05:21:42;2.83;;;1.60;;
10056;SDS011;5068;51.286;7.518;2023-03-11T05:23:16;3.05;;;1.40;;
10056;SDS011;5068;51.286;7.518;2023-03-11T05:24:49;4.88;;;1.60;;
10056;SDS011;5068;51.286;7.518;2023-03-11T05:26:23;4.10;;;1.52;;
10056;SDS011;5068;51.286;7.518;2023-03-11T05:27:56;2.00;;;1.30;;
10056;SDS011;5068;51.286;7.518;2023-03-11T05:29:29;4.50;;;1.60;;
10056;SDS011;5068;51.286;7.518;2023-03-11T05:31:06;4.25;;;1.40;;
10056;SDS011;5068;51.286;7.518;2023-03-11T05:32:41;6.63;;;1.27;;
10056;SDS011;5068;51.286;7.518;2023-03-11T05:34:16;4.25;;;1.55;;
10056;SDS011;5068;51.286;7.518;2023-03-11T05:35:49;3.30;;;1.23;;
10056;SDS011;5068;51.286;7.518;2023-03-11T05:37:25;2.55;;;1.20;;
10056;SDS011;5068;51.286;7.518;2023-03-11T05:38:59;3.45;;;1.38;;
10056;SDS011;5068;51.286;7.518;2023-03-11T05:40:34;4.18;;;1.33;;
10056;SDS011;5068;51.286;7.518;2023-03-11T05:42:07;3.63;;;1.27;;
10056;SDS011;5068;51.286;7.518;2023-03-11T05:43:41;3.85;;;1.17;;
10056;SDS011;5068;51.286;7.518;2023-03-11T05:45:14;2.50;;;0.98;;
10056;SDS011;5068;51.286;7.518;2023-03-11T05:46:50;3.10;;;1.58;;
10056;SDS011;5068;51.286;7.518;2023-03-11T05:48:23;3.13;;;0.98;;
10056;SDS011;5068;51.286;7.518;2023-03-11T05:49:57;2.85;;;1.05;;
10056;SDS011;5068;51.286;7.518;2023-03-11T05:51:31;3.10;;;1.33;;
10056;SDS011;5068;51.286;7.518;2023-03-11T05:53:05;2.10;;;1.13;;
10056;SDS011;5068;51.286;7.518;2023-03-11T05:54:38;3.47;;;1.27;;
10056;SDS011;5068;51.286;7.518;2023-03-11T05:56:12;3.90;;;1.20;;
10056;SDS011;5068;51.286;7.518;2023-03-11T05:57:46;4.07;;;1.17;;
10056;SDS011;5068;51.286;7.518;2023-03-11T05:59:23;1.80;;;1.00;;
10056;SDS011;5068;51.286;7.518;2023-03-11T06:01:01;3.10;;;1.08;;
10056;SDS011;5068;51.286;7.518;2023-03-11T06:02:41;2.55;;;0.80;;
10056;SDS011;5068;51.286;7.518;2023-03-11T06:04:17;3.63;;;1.00;;
10056;SDS011;5068;51.286;7.518;2023-03-11T06:05:51;3.10;;;0.80;;
10056;SDS011;5068;51.286;7.518;2023-03-11T06:07:25;3.42;;;0.95;;
10056;SDS011;5068;51.286;7.518;2023-03-11T06:09:00;4.10;;;1.08;;
10056;SDS011;5068;51.286;7.518;2023-03-11T06:10:34;3.25;;;1.17;;
10056;SDS011;5068;51.286;7.518;2023-03-11T06:12:07;2.63;;;0.80;;
10056;SDS011;5068;51.286;7.518;2023-03-11T06:13:57;4.25;;;1.13;;
10056;SDS011;5068;51.286;7.518;2023-03-11T06:15:32;3.67;;;1.10;;
10056;SDS011;5068;51.286;7.518;2023-03-11T06:17:06;3.10;;;0.90;;
10056;SDS011;5068;51.286;7.518;2023-03-11T06:18:40;1.73;;;0.80;;
10056;SDS011;5068;51.286;7.518;2023-03-11T06:20:13;3.53;;;1.30;;
10056;SDS011;5068;51.286;7.518;2023-03-11T06:21:47;3.78;;;1.00;;
10056;SDS011;5068;51.286;7.518;2023-03-11T06:23:21;4.63;;;1.20;;
10056;SDS011;5068;51.286;7.518;2023-03-11T06:24:56;3.33;;;1.02;;
10056;SDS011;5068;51.286;7.518;2023-03-11T06:26:29;2.90;;;1.25;;
10056;SDS011;5068;51.286;7.518;2023-03-11T06:28:02;5.03;;;1.05;;
10056;SDS011;5068;51.286;7.518;2023-03-11T06:29:36;1.50;;;0.93;;
10056;SDS011;5068;51.286;7.518;2023-03-11T06:31:10;2.47;;;0.98;;
10056;SDS011;5068;51.286;7.518;2023-03-11T06:32:48;4.05;;;0.90;;
10056;SDS011;5068;51.286;7.518;2023-03-11T06:34:20;2.78;;;0.90;;
10056;SDS011;5068;51.286;7.518;2023-03-11T06:35:55;5.00;;;1.02;;
10056;SDS011;5068;51.286;7.518;2023-03-11T06:37:29;2.25;;;0.82;;
10056;SDS011;5068;51.286;7.518;2023-03-11T06:39:03;2.63;;;1.13;;
10056;SDS011;5068;51.286;7.518;2023-03-11T06:40:38;2.85;;;1.00;;
10056;SDS011;5068;51.286;7.518;2023-03-11T06:42:12;2.92;;;0.90;;
10056;SDS011;5068;51.286;7.518;2023-03-11T06:43:46;3.15;;;1.10;;
10056;SDS011;5068;51.286;7.518;2023-03-11T06:45:19;2.90;;;1.38;;
10056;SDS011;5068;51.286;7.518;2023-03-11T06:46:53;2.38;;;0.75;;
10056;SDS011;5068;51.286;7.518;2023-03-11T06:48:26;3.25;;;0.90;;
10056;SDS011;5068;51.286;7.518;2023-03-11T06:50:00;3.22;;;0.80;;
10056;SDS011;5068;51.286;7.518;2023-03-11T06:51:37;2.80;;;1.10;;
10056;SDS011;5068;51.286;7.518;2023-03-11T06:53:10;3.03;;;0.90;;
10056;SDS011;5068;51.286;7.518;2023-03-11T06:54:44;3.35;;;1.10;;
10056;SDS011;5068;51.286;7.518;2023-03-11T06:56:21;4.68;;;0.73;;
10056;SDS011;5068;51.286;7.518;2023-03-11T06:58:02;3.05;;;0.70;;
10056;SDS011;5068;51.286;7.518;2023-03-11T06:59:36;4.30;;;0.90;;
10056;SDS011;5068;51.286;7.518;2023-03-11T07:01:12;4.88;;;1.30;;
10056;SDS011;5068;51.286;7.518;2023-03-11T07:02:48;2.53;;;0.85;;
10056;SDS011;5068;51.286;7.518;2023-03-11T07:04:21;3.25;;;0.90;;
10056;SDS011;5068;51.286;7.518;2023-03-11T07:05:54;2.25;;;0.80;;
10056;SDS011;5068;51.286;7.518;2023-03-11T07:07:28;2.45;;;0.73;;
10056;SDS011;5068;51.286;7.518;2023-03-11T07:09:03;4.50;;;0.90;;
10056;SDS011;5068;51.286;7.518;2023-03-11T07:10:38;3.53;;;0.70;;
10056;SDS011;5068;51.286;7.518;2023-03-11T07:12:12;3.80;;;1.00;;
10056;SDS011;5068;51.286;7.518;2023-03-11T07:13:46;4.65;;;1.40;;
10056;SDS011;5068;51.286;7.518;2023-03-11T07:15:21;3.35;;;0.90;;
10056;SDS011;5068;51.286;7.518;2023-03-11T07:16:54;3.00;;;0.60;;
10056;SDS011;5068;51.286;7.518;2023-03-11T07:18:33;3.38;;;1.00;;
10056;SDS011;5068;51.286;7.518;2023-03-11T07:20:09;3.13;;;0.70;;
10056;SDS011;5068;51.286;7.518;2023-03-11T07:21:44;2.28;;;0.80;;
10056;SDS011;5068;51.286;7.518;2023-03-11T07:23:18;5.25;;;0.98;;
10056;SDS011;5068;51.286;7.518;2023-03-11T07:24:52;2.92;;;1.02;;
10056;SDS011;5068;51.286;7.518;2023-03-11T07:26:25;3.15;;;0.80;;
10056;SDS011;5068;51.286;7.518;2023-03-11T07:28:02;3.67;;;0.93;;
10056;SDS011;5068;51.286;7.518;2023-03-11T07:29:36;1.85;;;0.90;;
10056;SDS011;5068;51.286;7.518;2023-03-11T07:31:09;2.80;;;0.93;;
10056;SDS011;5068;51.286;7.518;2023-03-11T07:32:44;4.97;;;0.85;;
10056;SDS011;5068;51.286;7.518;2023-03-11T07:34:18;4.20;;;1.05;;
10056;SDS011;5068;51.286;7.518;2023-03-11T07:35:51;4.30;;;0.80;;
10056;SDS011;5068;51.286;7.518;2023-03-11T07:37:24;3.58;;;1.05;;
10056;SDS011;5068;51.286;7.518;2023-03-11T07:38:58;3.83;;;0.93;;
10056;SDS011;5068;51.286;7.518;2023-03-11T07:40:35;2.47;;;0.90;;
10056;SDS011;5068;51.286;7.518;2023-03-11T07:42:08;4.15;;;0.70;;
10056;SDS011;5068;51.286;7.518;2023-03-11T07:43:43;4.15;;;0.63;;
10056;SDS011;5068;51.286;7.518;2023-03-11T07:45:17;2.88;;;1.00;;
10056;SDS011;5068;51.286;7.518;2023-03-11T07:46:50;3.30;;;0.77;;
10056;SDS011;5068;51.286;7.518;2023-03-11T07:48:23;3.10;;;0.73;;
10056;SDS011;5068;51.286;7.518;2023-03-11T07:49:56;1.70;;;0.50;;
10056;SDS011;5068;51.286;7.518;2023-03-11T07:51:30;4.28;;;0.80;;
10056;SDS011;5068;51.286;7.518;2023-03-11T07:53:05;1.98;;;0.65;;
10056;SDS011;5068;51.286;7.518;2023-03-11T07:54:38;1.80;;;0.80;;
10056;SDS011;5068;51.286;7.518;2023-03-11T07:56:12;2.22;;;0.80;;
10056;SDS011;5068;51.286;7.518;2023-03-11T07:57:47;2.08;;;0.50;;
10056;SDS011;5068;51.286;7.518;2023-03-11T07:59:23;3.42;;;1.00;;
10056;SDS011;5068;51.286;7.518;2023-03-11T08:01:01;2.80;;;0.50;;
10056;SDS011;5068;51.286;7.518;2023-03-11T08:02:37;3.50;;;0.98;;
10056;SDS011;5068;51.286;7.518;2023-03-11T08:04:10;2.15;;;0.60;;
10056;SDS011;5068;51.286;7.518;2023-03-11T08:05:46;3.38;;;0.70;;
10056;SDS011;5068;51.286;7.518;2023-03-11T08:07:20;2.70;;;1.38;;
10056;SDS011;5068;51.286;7.518;2023-03-11T08:08:53;3.25;;;0.70;;
10056;SDS011;5068;51.286;7.518;2023-03-11T08:10:26;2.20;;;0.55;;
10056;SDS011;5068;51.286;7.518;2023-03-11T08:11:59;2.78;;;0.70;;
10056;SDS011;5068;51.286;7.518;2023-03-11T08:13:32;3.95;;;0.88;;
10056;SDS011;5068;51.286;7.518;2023-03-11T08:15:08;2.00;;;0.82;;
10056;SDS011;5068;51.286;7.518;2023-03-11T08:16:42;1.35;;;0.43;;
10056;SDS011;5068;51.286;7.518;2023-03-11T08:18:15;1.98;;;0.60;;
10056;SDS011;5068;51.286;7.518;2023-03-11T08:19:49;3.00;;;0.70;;
10056;SDS011;5068;51.286;7.518;2023-03-11T08:21:23;3.75;;;0.65;;
10056;SDS011;5068;51.286;7.518;2023-03-11T08:22:59;4.43;;;0.70;;
10056;SDS011;5068;51.286;7.518;2023-03-11T08:24:32;1.58;;;0.80;;
10056;SDS011;5068;51.286;7.518;2023-03-11T08:26:06;5.47;;;1.00;;
10056;SDS011;5068;51.286;7.518;2023-03-11T08:27:42;1.88;;;0.77;;
10056;SDS011;5068;51.286;7.518;2023-03-11T08:29:15;1.85;;;0.60;;
10056;SDS011;5068;51.286;7.518;2023-03-11T08:30:50;1.63;;;0.70;;
10056;SDS011;5068;51.286;7.518;2023-03-11T08:32:23;4.43;;;0.70;;
10056;SDS011;5068;51.286;7.518;2023-03-11T08:33:57;3.58;;;0.90;;
10056;SDS011;5068;51.286;7.518;2023-03-11T08:35:33;4.75;;;0.68;;
10056;SDS011;5068;51.286;7.518;2023-03-11T08:37:06;2.65;;;0.60;;
10056;SDS011;5068;51.286;7.518;2023-03-11T08:38:40;3.03;;;0.68;;
10056;SDS011;5068;51.286;7.518;2023-03-11T08:40:14;1.52;;;0.70;;
10056;SDS011;5068;51.286;7.518;2023-03-11T08:41:47;2.30;;;0.63;;
10056;SDS011;5068;51.286;7.518;2023-03-11T08:43:20;3.90;;;0.88;;
10056;SDS011;5068;51.286;7.518;2023-03-11T08:44:54;2.03;;;0.70;;
10056;SDS011;5068;51.286;7.518;2023-03-11T08:46:29;3.95;;;0.90;;
10056;SDS011;5068;51.286;7.518;2023-03-11T08:48:06;2.63;;;0.50;;
10056;SDS011;5068;51.286;7.518;2023-03-11T08:49:42;2.70;;;0.60;;
10056;SDS011;5068;51.286;7.518;2023-03-11T08:51:16;2.85;;;1.00;;
10056;SDS011;5068;51.286;7.518;2023-03-11T08:54:25;1.98;;;0.52;;
10056;SDS011;5068;51.286;7.518;2023-03-11T08:55:58;1.95;;;0.93;;
10056;SDS011;5068;51.286;7.518;2023-03-11T08:57:31;1.58;;;0.70;;
10056;SDS011;5068;51.286;7.518;2023-03-11T08:59:05;2.90;;;0.77;;
10056;SDS011;5068;51.286;7.518;2023-03-11T09:00:38;3.30;;;0.60;;
10056;SDS011;5068;51.286;7.518;2023-03-11T09:02:13;2.53;;;0.88;;
10056;SDS011;5068;51.286;7.518;2023-03-11T09:03:46;2.08;;;0.68;;
10056;SDS011;5068;51.286;7.518;2023-03-11T09:05:20;4.18;;;0.80;;
10056;SDS011;5068;51.286;7.518;2023-03-11T09:06:53;2.17;;;0.60;;
10056;SDS011;5068;51.286;7.518;2023-03-11T09:08:26;1.65;;;0.60;;
10056;SDS011;5068;51.286;7.518;2023-03-11T09:09:59;1.33;;;0.50;;
10056;SDS011;5068;51.286;7.518;2023-03-11T09:11:33;1.23;;;0.35;;
10056;SDS011;5068;51.286;7.518;2023-03-11T09:13:07;2.20;;;0.85;;
10056;SDS011;5068;51.286;7.518;2023-03-11T09:14:41;2.05;;;0.57;;
10056;SDS011;5068;51.286;7.518;2023-03-11T09:16:16;3.25;;;0.50;;
10056;SDS011;5068;51.286;7.518;2023-03-11T09:17:53;2.55;;;0.80;;
10056;SDS011;5068;51.286;7.518;2023-03-11T09:19:27;2.97;;;0.73;;
10056;SDS011;5068;51.286;7.518;2023-03-11T09:21:00;3.55;;;0.60;;
10056;SDS011;5068;51.286;7.518;2023-03-11T09:22:34;3.00;;;0.50;;
10056;SDS011;5068;51.286;7.518;2023-03-11T09:24:07;5.18;;;0.90;;
10056;SDS011;5068;51.286;7.518;2023-03-11T09:25:40;1.63;;;0.60;;
10056;SDS011;5068;51.286;7.518;2023-03-11T09:27:14;2.80;;;0.65;;
10056;SDS011;5068;51.286;7.518;2023-03-11T09:28:47;3.47;;;0.70;;
10056;SDS011;5068;51.286;7.518;2023-03-11T09:30:20;2.15;;;0.80;;
10056;SDS011;5068;51.286;7.518;2023-03-11T09:31:53;2.80;;;0.45;;
10056;SDS011;5068;51.286;7.518;2023-03-11T09:33:28;4.65;;;0.60;;
10056;SDS011;5068;51.286;7.518;2023-03-11T09:35:02;1.42;;;0.50;;
10056;SDS011;5068;51.286;7.518;2023-03-11T09:36:36;3.10;;;0.50;;
10056;SDS011;5068;51.286;7.518;2023-03-11T09:38:13;2.30;;;0.55;;
10056;SDS011;5068;51.286;7.518;2023-03-11T09:39:46;3.47;;;0.50;;
10056;SDS011;5068;51.286;7.518;2023-03-11T09:41:21;2.42;;;0.50;;
10056;SDS011;5068;51.286;7.518;2023-03-11T09:43:30;1.73;;;0.40;;